Summersville, Missouri
Current Conditions -  °F | °C
As of 3:53 AM on Friday 24 Oct 2014 (Local Time) from KUNO Reporting Station
Clear Clear  
Wind Chill: 46°   Ceiling: Unl
Heat Index: 48°   Visibility: 10mi
Dew Point: 45°   Wind: 5mph
Humidity: 89%   Direction: 230°SW
Pressure: 30.12"   Gusts: NA
Location:  37.18°N, 91.66°W
Report Text: KUNO 240853Z AUTO 23004KT 10SM CLR 09/07 A3012 RMK AO2 SLP196 T00890072 58007
Loading
Personal Weather Stations






























Interactive Weather Map
Tropical Storm Tracking
New forecast layout! Learn more

10-Day Weather Forecast

Advertisements
Track Severe Weather on mobile